Time,TemperatureF,DewpointF,PressureIn,WindDirection,WindDirectionDegrees,WindSpeedMPH,WindSpeedGustMPH,Humidity,HourlyPrecipIn,Conditions,Clouds,dailyrainin,SoftwareType,DateUTC
2013-02-20 00:03:00,37.9,30.7,30.05,ENE,68,0.0,0.0,75,0.00,,,0.00,WUHU216HW,2013-02-19 23:03:00,
2013-02-20 00:08:00,37.9,30.3,30.05,ENE,68,0.0,0.0,74,0.00,,,0.00,WUHU216HW,2013-02-19 23:08:00,
2013-02-20 00:13:00,38.1,30.2,30.05,ESE,113,0.0,0.0,73,0.00,,,0.00,WUHU216HW,2013-02-19 23:13:00,
2013-02-20 00:18:00,38.4,30.5,30.05,ENE,68,0.0,0.0,73,0.00,,,0.00,WUHU216HW,2013-02-19 23:18:00,
2013-02-20 00:23:00,38.4,30.5,30.05,East,90,0.0,0.0,73,0.00,,,0.00,WUHU216HW,2013-02-19 23:23:00,
2013-02-20 00:28:00,38.4,30.5,30.05,ESE,113,0.0,0.0,73,0.00,,,0.00,WUHU216HW,2013-02-19 23:28:00,
2013-02-20 00:33:00,38.6,30.8,30.05,East,90,1.7,1.7,73,0.00,,,0.00,WUHU216HW,2013-02-19 23:33:00,
2013-02-20 00:38:00,38.8,30.8,30.05,ENE,68,0.0,1.7,73,0.00,,,0.00,WUHU216HW,2013-02-19 23:38:00,
2013-02-20 00:43:00,38.4,30.8,30.05,ENE,68,0.0,0.0,74,0.00,,,0.00,WUHU216HW,2013-02-19 23:43:00,
2013-02-20 00:48:00,38.4,30.8,30.06,ENE,68,0.0,0.0,74,0.00,,,0.00,WUHU216HW,2013-02-19 23:48:00,
2013-02-20 00:53:00,38.3,30.7,30.06,ENE,68,0.0,0.0,74,0.00,,,0.00,WUHU216HW,2013-02-19 23:53:00,
2013-02-20 00:58:00,38.4,30.5,30.06,ESE,113,1.5,1.5,73,0.00,,,0.00,WUHU216HW,2013-02-19 23:58:00,
2013-02-20 01:03:00,38.4,30.5,30.06,East,90,0.0,1.5,73,0.00,,,0.00,WUHU216HW,2013-02-20 00:03:00,
2013-02-20 01:08:00,38.4,30.8,30.06,East,90,0.0,0.6,74,0.00,,,0.00,WUHU216HW,2013-02-20 00:08:00,
2013-02-20 01:13:00,38.8,31.2,30.06,East,90,1.3,2.0,74,0.00,,,0.00,WUHU216HW,2013-02-20 00:13:00,
2013-02-20 01:18:00,38.8,31.5,30.07,East,90,0.0,2.0,75,0.00,,,0.00,WUHU216HW,2013-02-20 00:18:00,
2013-02-20 01:23:00,38.8,31.5,30.07,ESE,113,1.6,2.0,75,0.00,,,0.00,WUHU216HW,2013-02-20 00:23:00,
2013-02-20 01:28:00,39.0,31.7,30.06,East,90,1.3,2.0,75,0.00,,,0.00,WUHU216HW,2013-02-20 00:28:00,
2013-02-20 01:33:00,39.0,31.7,30.06,East,90,0.0,1.3,75,0.00,,,0.00,WUHU216HW,2013-02-20 00:33:00,
2013-02-20 01:38:00,39.3,32.4,30.06,NE,45,0.0,1.5,76,0.00,,,0.00,WUHU216HW,2013-02-20 00:38:00,
2013-02-20 01:43:00,39.0,32.0,30.06,East,90,1.5,1.5,76,0.00,,,0.00,WUHU216HW,2013-02-20 00:43:00,
2013-02-20 01:48:00,39.0,32.0,30.05,WSW,248,1.7,1.7,76,0.00,,,0.00,WUHU216HW,2013-02-20 00:48:00,
2013-02-20 01:53:00,38.3,31.3,30.06,West,270,1.5,2.0,76,0.00,,,0.00,WUHU216HW,2013-02-20 00:53:00,
2013-02-20 01:58:00,37.9,31.0,30.06,SSW,203,0.0,2.0,76,0.00,,,0.00,WUHU216HW,2013-02-20 00:58:00,
2013-02-20 02:03:00,37.9,31.0,30.06,SSW,203,0.0,0.0,76,0.00,,,0.00,WUHU216HW,2013-02-20 01:03:00,
2013-02-20 02:08:00,37.9,30.7,30.05,South,180,0.0,0.0,75,0.00,,,0.00,WUHU216HW,2013-02-20 01:08:00,
2013-02-20 02:13:00,37.7,30.5,30.05,South,180,0.0,0.0,75,0.00,,,0.00,WUHU216HW,2013-02-20 01:13:00,
2013-02-20 02:18:00,37.9,30.3,30.05,East,90,1.3,1.3,74,0.00,,,0.00,WUHU216HW,2013-02-20 01:18:00,
2013-02-20 02:23:00,37.9,30.3,30.05,NE,45,0.0,1.3,74,0.00,,,0.00,WUHU216HW,2013-02-20 01:23:00,
2013-02-20 02:28:00,38.1,30.5,30.04,East,90,1.5,1.7,74,0.00,,,0.00,WUHU216HW,2013-02-20 01:28:00,
2013-02-20 02:33:00,38.1,30.8,30.04,SSE,158,0.0,1.7,75,0.00,,,0.00,WUHU216HW,2013-02-20 01:33:00,
2013-02-20 02:38:00,38.4,30.8,30.04,ESE,113,1.3,1.3,74,0.00,,,0.00,WUHU216HW,2013-02-20 01:38:00,
2013-02-20 02:43:00,38.8,31.2,30.04,ESE,113,1.0,1.7,74,0.00,,,0.00,WUHU216HW,2013-02-20 01:43:00,
2013-02-20 02:48:00,39.0,31.7,30.04,SE,135,0.0,1.7,75,0.00,,,0.00,WUHU216HW,2013-02-20 01:48:00,
2013-02-20 02:53:00,38.8,31.8,30.04,NNW,338,0.0,0.0,76,0.00,,,0.00,WUHU216HW,2013-02-20 01:53:00,
2013-02-20 02:59:00,38.1,31.2,30.04,NNW,338,0.0,0.0,76,0.00,,,0.00,WUHU216HW,2013-02-20 01:59:00,
2013-02-20 03:04:00,37.5,30.6,30.04,NNW,338,0.0,0.0,76,0.00,,,0.00,WUHU216HW,2013-02-20 02:04:00,
2013-02-20 03:09:00,37.0,29.8,30.04,NE,45,0.0,0.0,75,0.00,,,0.00,WUHU216HW,2013-02-20 02:09:00,
2013-02-20 03:14:00,37.0,29.5,30.04,East,90,1.3,1.3,74,0.00,,,0.00,WUHU216HW,2013-02-20 02:14:00,
2013-02-20 03:19:00,37.2,29.3,30.04,East,90,0.0,1.3,73,0.00,,,0.00,WUHU216HW,2013-02-20 02:19:00,
2013-02-20 03:24:00,37.2,29.3,30.04,East,90,0.0,0.0,73,0.00,,,0.00,WUHU216HW,2013-02-20 02:24:00,
2013-02-20 03:29:00,37.2,29.6,30.05,NNW,338,0.0,0.0,74,0.00,,,0.00,WUHU216HW,2013-02-20 02:29:00,
2013-02-20 03:34:00,37.0,29.1,30.05,ENE,68,0.6,0.6,73,0.00,,,0.00,WUHU216HW,2013-02-20 02:34:00,
2013-02-20 03:39:00,37.0,29.1,30.04,ENE,68,0.0,0.6,73,0.00,,,0.00,WUHU216HW,2013-02-20 02:39:00,
2013-02-20 03:44:00,37.4,29.0,30.04,East,90,0.0,0.8,71,0.00,,,0.00,WUHU216HW,2013-02-20 02:44:00,
2013-02-20 03:49:00,38.1,29.5,30.04,ENE,68,0.0,1.3,71,0.00,,,0.00,WUHU216HW,2013-02-20 02:49:00,
2013-02-20 03:54:00,38.1,30.2,30.04,NE,45,1.3,1.3,73,0.00,,,0.00,WUHU216HW,2013-02-20 02:54:00,
2013-02-20 03:59:00,37.7,29.8,30.04,ENE,68,0.0,1.3,73,0.00,,,0.00,WUHU216HW,2013-02-20 02:59:00,
2013-02-20 04:04:00,37.9,29.8,30.04,East,90,0.0,0.0,73,0.00,,,0.00,WUHU216HW,2013-02-20 03:04:00,
2013-02-20 04:09:00,38.1,30.2,30.04,East,90,0.0,0.0,73,0.00,,,0.00,WUHU216HW,2013-02-20 03:09:00,
2013-02-20 04:14:00,38.1,30.2,30.04,East,90,0.0,0.0,73,0.00,,,0.00,WUHU216HW,2013-02-20 03:14:00,
2013-02-20 04:19:00,38.4,30.2,30.05,East,90,0.6,0.6,72,0.00,,,0.00,WUHU216HW,2013-02-20 03:19:00,
2013-02-20 04:24:00,39.0,31.3,30.04,East,90,0.8,0.8,74,0.00,,,0.00,WUHU216HW,2013-02-20 03:24:00,
2013-02-20 04:29:00,39.0,31.3,30.04,ESE,113,1.3,2.2,74,0.00,,,0.00,WUHU216HW,2013-02-20 03:29:00,
2013-02-20 04:34:00,39.0,31.7,30.05,WNW,293,0.0,2.2,75,0.00,,,0.00,WUHU216HW,2013-02-20 03:34:00,
2013-02-20 04:39:00,38.4,31.5,30.05,South,180,1.5,2.2,76,0.00,,,0.00,WUHU216HW,2013-02-20 03:39:00,
2013-02-20 04:44:00,38.1,30.8,30.05,SSE,158,0.0,2.2,75,0.00,,,0.00,WUHU216HW,2013-02-20 03:44:00,
2013-02-20 04:49:00,38.1,30.8,30.05,SE,135,0.0,1.7,75,0.00,,,0.00,WUHU216HW,2013-02-20 03:49:00,
2013-02-20 04:54:00,38.1,30.8,30.05,North,0,0.0,0.0,75,0.00,,,0.00,WUHU216HW,2013-02-20 03:54:00,
2013-02-20 04:59:00,37.5,30.3,30.04,NW,315,0.0,0.0,75,0.00,,,0.00,WUHU216HW,2013-02-20 03:59:00,
2013-02-20 05:04:00,36.8,29.3,30.04,East,90,0.8,0.8,74,0.00,,,0.00,WUHU216HW,2013-02-20 04:04:00,
2013-02-20 05:09:00,36.5,28.9,30.04,NE,45,0.0,0.8,74,0.00,,,0.00,WUHU216HW,2013-02-20 04:09:00,
2013-02-20 05:14:00,36.3,28.4,30.04,NNE,23,0.0,0.0,73,0.00,,,0.00,WUHU216HW,2013-02-20 04:14:00,
2013-02-20 05:19:00,36.3,28.4,30.05,West,270,1.1,1.1,73,0.00,,,0.00,WUHU216HW,2013-02-20 04:19:00,
2013-02-20 05:24:00,36.3,28.1,30.04,WSW,248,0.0,1.1,72,0.00,,,0.00,WUHU216HW,2013-02-20 04:24:00,
2013-02-20 05:29:00,36.5,28.0,30.04,ESE,113,0.0,1.1,71,0.00,,,0.00,WUHU216HW,2013-02-20 04:29:00,
2013-02-20 05:34:00,37.0,28.2,30.05,SE,135,0.0,1.5,70,0.00,,,0.00,WUHU216HW,2013-02-20 04:34:00,
2013-02-20 05:39:00,37.2,28.7,30.05,SW,225,0.0,1.5,71,0.00,,,0.00,WUHU216HW,2013-02-20 04:39:00,
2013-02-20 05:44:00,37.7,29.2,30.05,ESE,113,0.0,0.0,71,0.00,,,0.00,WUHU216HW,2013-02-20 04:44:00,
2013-02-20 05:49:00,37.9,29.3,30.05,East,90,0.0,0.0,71,0.00,,,0.00,WUHU216HW,2013-02-20 04:49:00,
2013-02-20 05:54:00,37.9,29.7,30.05,East,90,0.0,0.0,72,0.00,,,0.00,WUHU216HW,2013-02-20 04:54:00,
2013-02-20 05:59:00,38.4,29.8,30.05,East,90,1.3,1.3,71,0.00,,,0.00,WUHU216HW,2013-02-20 04:59:00,
2013-02-20 06:00:00,38.4,30.2,30.05,SE,135,0.0,1.3,71,0.00,,,0.00,WUHU216HW,2013-02-20 05:00:00,
2013-02-20 06:05:00,39.0,31.0,30.05,SE,135,0.0,1.3,73,0.00,,,0.00,WUHU216HW,2013-02-20 05:05:00,
2013-02-20 06:10:00,39.3,31.7,30.05,ESE,113,0.6,0.6,74,0.00,,,0.00,WUHU216HW,2013-02-20 05:10:00,
2013-02-20 06:15:00,39.5,31.9,30.05,SE,135,0.0,1.7,74,0.00,,,0.00,WUHU216HW,2013-02-20 05:15:00,
2013-02-20 06:20:00,39.7,32.4,30.05,ENE,68,0.0,1.7,75,0.00,,,0.00,WUHU216HW,2013-02-20 05:20:00,
2013-02-20 06:25:00,39.3,32.4,30.05,ENE,68,0.0,0.0,76,0.00,,,0.00,WUHU216HW,2013-02-20 05:25:00,
2013-02-20 06:30:00,39.0,31.7,30.05,SE,135,2.2,2.2,75,0.00,,,0.00,WUHU216HW,2013-02-20 05:30:00,
2013-02-20 06:35:00,39.3,31.7,30.05,ESE,105,1.1,2.2,74,0.00,,,0.00,WUHU216HW,2013-02-20 05:35:00,
2013-02-20 06:40:00,39.5,32.2,30.05,ENE,68,2.0,2.0,75,0.00,,,0.00,WUHU216HW,2013-02-20 05:40:00,
2013-02-20 06:45:00,39.5,32.4,30.04,South,180,0.0,2.0,76,0.00,,,0.00,WUHU216HW,2013-02-20 05:45:00,
2013-02-20 06:50:00,39.0,32.0,30.04,SSE,158,0.0,2.0,76,0.00,,,0.00,WUHU216HW,2013-02-20 05:50:00,
2013-02-20 06:55:00,39.0,31.7,30.04,SE,135,0.0,0.8,75,0.00,,,0.00,WUHU216HW,2013-02-20 05:55:00,
2013-02-20 07:00:00,38.8,31.5,30.04,SE,135,0.0,0.8,75,0.00,,,0.00,WUHU216HW,2013-02-20 06:00:00,
2013-02-20 07:05:00,38.8,31.2,30.04,North,0,0.0,1.3,74,0.00,,,0.00,WUHU216HW,2013-02-20 06:05:00,
2013-02-20 07:10:00,38.8,31.2,30.04,SE,135,1.1,1.3,74,0.00,,,0.00,WUHU216HW,2013-02-20 06:10:00,
2013-02-20 07:15:00,39.0,31.2,30.04,SSE,158,0.0,1.7,74,0.00,,,0.00,WUHU216HW,2013-02-20 06:15:00,
2013-02-20 07:20:00,39.0,31.3,30.05,East,90,2.4,2.4,74,0.00,,,0.00,WUHU216HW,2013-02-20 06:20:00,
2013-02-20 07:25:00,39.2,31.5,30.05,SE,135,0.0,2.4,74,0.00,,,0.00,WUHU216HW,2013-02-20 06:25:00,
2013-02-20 07:30:00,39.7,32.4,30.04,ENE,68,1.5,1.5,75,0.00,,,0.00,WUHU216HW,2013-02-20 06:30:00,
2013-02-20 07:35:00,39.5,32.5,30.05,South,180,0.0,2.2,76,0.00,,,0.00,WUHU216HW,2013-02-20 06:35:00,
2013-02-20 07:40:00,39.5,32.5,30.04,ESE,113,2.0,2.2,76,0.00,,,0.00,WUHU216HW,2013-02-20 06:40:00,
2013-02-20 07:45:00,39.7,32.9,30.05,SSE,158,0.0,2.0,76,0.00,,,0.00,WUHU216HW,2013-02-20 06:45:00,
2013-02-20 07:50:00,39.9,32.9,30.05,ESE,113,0.0,1.5,76,0.00,,,0.00,WUHU216HW,2013-02-20 06:50:00,
2013-02-20 07:55:00,40.1,33.0,30.05,SE,135,0.0,0.0,76,0.00,,,0.00,WUHU216HW,2013-02-20 06:55:00,
2013-02-20 08:00:00,39.9,32.9,30.05,NNE,23,0.0,0.0,76,0.00,,,0.00,WUHU216HW,2013-02-20 07:00:00,
2013-02-20 08:05:00,39.7,32.7,30.05,NE,45,0.8,0.8,76,0.00,,,0.00,WUHU216HW,2013-02-20 07:05:00,
2013-02-20 08:10:00,40.6,33.6,30.05,ENE,68,0.0,1.1,76,0.00,,,0.00,WUHU216HW,2013-02-20 07:10:00,
2013-02-20 08:16:00,41.9,35.1,30.04,ENE,68,1.3,2.0,77,0.00,,,0.00,WUHU216HW,2013-02-20 07:16:00,
2013-02-20 08:21:00,42.9,36.2,30.04,East,90,0.0,2.0,77,0.00,,,0.00,WUHU216HW,2013-02-20 07:21:00,
2013-02-20 08:26:00,43.7,36.6,30.04,NE,45,0.0,1.7,76,0.00,,,0.00,WUHU216HW,2013-02-20 07:26:00,
2013-02-20 08:31:00,44.4,37.2,30.04,NNE,23,2.0,2.0,76,0.00,,,0.00,WUHU216HW,2013-02-20 07:31:00,
2013-02-20 08:36:00,45.3,37.8,30.04,South,180,0.0,2.0,75,0.00,,,0.00,WUHU216HW,2013-02-20 07:36:00,
2013-02-20 08:41:00,46.0,38.2,30.04,North,0,0.8,1.7,74,0.00,,,0.00,WUHU216HW,2013-02-20 07:41:00,
2013-02-20 08:46:00,45.6,37.8,30.04,NNW,338,0.6,0.8,74,0.00,,,0.00,WUHU216HW,2013-02-20 07:46:00,
2013-02-20 08:51:00,46.2,38.0,30.04,West,270,0.0,0.6,73,0.00,,,0.00,WUHU216HW,2013-02-20 07:51:00,
2013-02-20 08:56:00,46.2,38.4,30.04,SSW,203,0.0,0.0,74,0.00,,,0.00,WUHU216HW,2013-02-20 07:56:00,
2013-02-20 09:01:00,47.1,38.8,30.04,SW,225,2.6,2.6,73,0.00,,,0.00,WUHU216HW,2013-02-20 08:01:00,
2013-02-20 09:06:00,47.1,38.5,30.05,SW,225,2.4,2.6,72,0.00,,,0.00,WUHU216HW,2013-02-20 08:06:00,
2013-02-20 09:11:00,47.6,38.6,30.05,SSW,203,2.4,2.4,71,0.00,,,0.00,WUHU216HW,2013-02-20 08:11:00,
2013-02-20 09:16:00,47.4,38.5,30.04,SSW,203,1.3,3.1,71,0.00,,,0.00,WUHU216HW,2013-02-20 08:16:00,
2013-02-20 09:21:00,47.6,38.3,30.04,SW,232,2.3,4.0,70,0.00,,,0.00,WUHU216HW,2013-02-20 08:21:00,
2013-02-20 09:26:00,47.8,38.5,30.04,SW,225,1.3,4.0,70,0.00,,,0.00,WUHU216HW,2013-02-20 08:26:00,
2013-02-20 09:31:00,48.9,39.1,30.04,SW,225,1.5,3.5,69,0.00,,,0.00,WUHU216HW,2013-02-20 08:31:00,
2013-02-20 09:36:00,50.0,39.8,30.04,WSW,251,2.3,2.6,68,0.00,,,0.00,WUHU216HW,2013-02-20 08:36:00,
2013-02-20 09:41:00,49.8,38.8,30.05,SSW,203,3.4,5.3,66,0.00,,,0.00,WUHU216HW,2013-02-20 08:41:00,
2013-02-20 09:46:00,50.1,38.8,30.04,SW,225,4.4,6.4,65,0.00,,,0.00,WUHU216HW,2013-02-20 08:46:00,
2013-02-20 09:51:00,50.9,38.3,30.05,South,180,3.9,6.4,62,0.00,,,0.00,WUHU216HW,2013-02-20 08:51:00,
2013-02-20 09:56:00,51.6,38.1,30.04,SSW,203,3.5,4.6,60,0.00,,,0.00,WUHU216HW,2013-02-20 08:56:00,
2013-02-20 10:01:00,51.8,37.4,30.05,SSW,203,4.0,4.4,58,0.00,,,0.00,WUHU216HW,2013-02-20 09:01:00,
2013-02-20 10:06:00,52.7,37.3,30.04,ESE,118,1.9,4.2,56,0.00,,,0.00,WUHU216HW,2013-02-20 09:06:00,
2013-02-20 10:11:00,52.8,36.4,30.04,South,179,3.5,5.1,54,0.00,,,0.00,WUHU216HW,2013-02-20 09:11:00,
2013-02-20 10:16:00,53.0,37.2,30.04,North,0,0.0,5.1,55,0.00,,,0.00,WUHU216HW,2013-02-20 09:16:00,
2013-02-20 10:21:00,52.8,36.6,30.04,SSE,158,3.0,4.6,54,0.00,,,0.00,WUHU216HW,2013-02-20 09:21:00,
2013-02-20 10:26:00,52.5,36.5,30.04,SSE,158,2.8,5.3,55,0.00,,,0.00,WUHU216HW,2013-02-20 09:26:00,
2013-02-20 10:31:00,53.2,37.4,30.05,South,181,2.8,5.3,55,0.00,,,0.00,WUHU216HW,2013-02-20 09:31:00,
2013-02-20 10:36:00,53.2,36.9,30.05,SSW,203,2.4,4.2,54,0.00,,,0.00,WUHU216HW,2013-02-20 09:36:00,
2013-02-20 10:41:00,53.0,37.2,30.04,NE,45,0.0,6.7,55,0.00,,,0.00,WUHU216HW,2013-02-20 09:41:00,
2013-02-20 10:46:00,53.6,36.8,30.05,WSW,240,6.4,6.9,53,0.00,,,0.00,WUHU216HW,2013-02-20 09:46:00,
2013-02-20 10:51:00,53.4,37.5,30.05,South,180,4.2,6.9,55,0.00,,,0.00,WUHU216HW,2013-02-20 09:51:00,
2013-02-20 10:56:00,54.1,37.3,30.05,SE,129,2.0,4.2,53,0.00,,,0.00,WUHU216HW,2013-02-20 09:56:00,
2013-02-20 11:01:00,54.3,37.0,30.04,SE,124,2.3,3.3,52,0.00,,,0.00,WUHU216HW,2013-02-20 10:01:00,
2013-02-20 11:06:00,54.3,36.5,30.05,SSE,158,6.2,7.3,51,0.00,,,0.00,WUHU216HW,2013-02-20 10:06:00,
2013-02-20 11:11:00,53.7,36.6,30.05,South,180,2.6,7.3,52,0.00,,,0.00,WUHU216HW,2013-02-20 10:11:00,
2013-02-20 11:16:00,54.6,35.8,30.04,WSW,248,3.5,9.3,49,0.00,,,0.00,WUHU216HW,2013-02-20 10:16:00,
2013-02-20 11:21:00,54.3,36.0,30.04,South,185,2.8,9.3,50,0.00,,,0.00,WUHU216HW,2013-02-20 10:21:00,
2013-02-20 11:26:00,53.2,36.0,30.05,South,180,2.9,3.5,52,0.00,,,0.00,WUHU216HW,2013-02-20 10:26:00,
2013-02-20 11:31:00,52.3,35.1,30.04,SSW,192,4.0,10.2,52,0.00,,,0.00,WUHU216HW,2013-02-20 10:31:00,
2013-02-20 11:36:00,51.9,35.3,30.04,SSW,198,4.1,10.2,53,0.00,,,0.00,WUHU216HW,2013-02-20 10:36:00,
2013-02-20 11:41:00,51.9,35.6,30.04,SW,225,3.1,6.7,54,0.00,,,0.00,WUHU216HW,2013-02-20 10:41:00,
2013-02-20 11:46:00,51.6,34.9,30.04,SW,225,8.9,8.9,53,0.00,,,0.00,WUHU216HW,2013-02-20 10:46:00,
2013-02-20 11:51:00,51.6,34.9,30.04,West,270,3.3,10.2,53,0.00,,,0.00,WUHU216HW,2013-02-20 10:51:00,
2013-02-20 11:56:00,51.9,35.3,30.04,SW,225,4.6,10.2,53,0.00,,,0.00,WUHU216HW,2013-02-20 10:56:00,
2013-02-20 12:01:00,51.6,35.4,30.04,SW,226,4.8,8.9,54,0.00,,,0.00,WUHU216HW,2013-02-20 11:01:00,
2013-02-20 12:06:00,51.6,35.4,30.04,West,270,4.1,8.9,54,0.00,,,0.00,WUHU216HW,2013-02-20 11:06:00,
2013-02-20 12:11:00,51.6,35.4,30.04,WSW,248,2.4,6.7,54,0.00,,,0.00,WUHU216HW,2013-02-20 11:11:00,
2013-02-20 12:16:00,51.9,35.7,30.04,SSE,158,3.3,5.3,54,0.00,,,0.00,WUHU216HW,2013-02-20 11:16:00,
2013-02-20 12:21:00,52.1,36.3,30.03,South,180,5.3,5.3,55,0.00,,,0.00,WUHU216HW,2013-02-20 11:21:00,
2013-02-20 12:26:00,52.3,36.1,30.04,SSW,203,1.5,5.3,54,0.00,,,0.00,WUHU216HW,2013-02-20 11:26:00,
2013-02-20 12:31:00,52.3,36.1,30.03,SW,220,6.2,9.8,53,0.00,,,0.00,WUHU216HW,2013-02-20 11:31:00,
2013-02-20 12:36:00,52.1,35.9,30.02,SW,225,3.5,9.8,54,0.00,,,0.00,WUHU216HW,2013-02-20 11:36:00,
2013-02-20 12:41:00,51.9,36.2,30.02,SSE,158,4.4,9.6,55,0.00,,,0.00,WUHU216HW,2013-02-20 11:41:00,
2013-02-20 12:46:00,51.9,36.2,30.02,SSW,203,2.0,9.6,55,0.00,,,0.00,WUHU216HW,2013-02-20 11:46:00,
2013-02-20 12:51:00,53.4,37.1,30.02,SSW,203,5.3,5.3,54,0.00,,,0.00,WUHU216HW,2013-02-20 11:51:00,
2013-02-20 12:56:00,53.7,36.9,30.02,SSW,203,3.5,8.7,53,0.00,,,0.00,WUHU216HW,2013-02-20 11:56:00,
2013-02-20 13:01:00,53.9,36.0,30.02,East,90,0.6,8.7,51,0.00,,,0.00,WUHU216HW,2013-02-20 12:01:00,
2013-02-20 13:06:00,55.2,37.3,30.02,SSE,158,2.9,4.6,51,0.00,,,0.00,WUHU216HW,2013-02-20 12:06:00,
2013-02-20 13:11:00,56.1,37.1,30.02,WSW,255,2.9,3.8,49,0.00,,,0.00,WUHU216HW,2013-02-20 12:11:00,
2013-02-20 13:16:00,55.4,35.9,30.02,South,171,5.0,6.0,48,0.00,,,0.00,WUHU216HW,2013-02-20 12:16:00,
2013-02-20 13:21:00,55.5,36.6,30.01,SW,225,3.1,6.0,49,0.00,,,0.00,WUHU216HW,2013-02-20 12:21:00,
2013-02-20 13:26:00,55.7,36.2,30.01,SSE,152,3.5,5.1,48,0.00,,,0.00,WUHU216HW,2013-02-20 12:26:00,
2013-02-20 13:31:00,55.9,36.4,30.01,South,173,4.2,5.8,48,0.00,,,0.00,WUHU216HW,2013-02-20 12:31:00,
2013-02-20 13:36:00,56.1,36.0,30.00,SSW,203,2.2,5.8,47,0.00,,,0.00,WUHU216HW,2013-02-20 12:36:00,
2013-02-20 13:41:00,55.0,35.6,30.00,SW,225,10.5,10.5,48,0.00,,,0.00,WUHU216HW,2013-02-20 12:41:00,
2013-02-20 13:46:00,53.7,35.5,29.99,WSW,248,3.8,10.5,50,0.00,,,0.00,WUHU216HW,2013-02-20 12:46:00,
2013-02-20 13:51:00,53.4,35.2,30.00,WSW,248,0.0,4.2,50,0.00,,,0.00,WUHU216HW,2013-02-20 12:51:00,
2013-02-20 13:56:00,53.4,35.7,29.99,WNW,293,0.0,3.5,51,0.00,,,0.00,WUHU216HW,2013-02-20 12:56:00,
2013-02-20 14:01:00,53.7,36.0,29.99,WSW,248,1.7,2.0,51,0.00,,,0.00,WUHU216HW,2013-02-20 13:01:00,
2013-02-20 14:06:00,53.7,36.0,29.99,SSE,158,2.2,2.2,51,0.00,,,0.00,WUHU216HW,2013-02-20 13:06:00,
2013-02-20 14:11:00,54.3,36.5,29.99,East,90,1.3,2.4,51,0.00,,,0.00,WUHU216HW,2013-02-20 13:11:00,
2013-02-20 14:16:00,55.2,36.3,29.99,SE,135,0.0,6.7,49,0.00,,,0.00,WUHU216HW,2013-02-20 13:16:00,
2013-02-20 14:21:00,56.4,38.1,29.99,South,180,4.7,6.7,50,0.00,,,0.00,WUHU216HW,2013-02-20 13:21:00,
2013-02-20 14:26:00,57.0,38.0,29.99,SSE,158,0.8,6.0,49,0.00,,,0.00,WUHU216HW,2013-02-20 13:26:00,
2013-02-20 14:31:00,56.8,37.9,29.99,South,187,3.3,7.6,49,0.00,,,0.00,WUHU216HW,2013-02-20 13:31:00,
2013-02-20 14:36:00,56.8,37.3,29.98,ENE,68,7.6,9.8,48,0.00,,,0.00,WUHU216HW,2013-02-20 13:36:00,
2013-02-20 14:41:00,55.9,37.0,29.98,NW,315,9.6,9.8,49,0.00,,,0.00,WUHU216HW,2013-02-20 13:41:00,
2013-02-20 14:46:00,54.8,36.5,29.98,NW,319,1.6,9.6,50,0.00,,,0.00,WUHU216HW,2013-02-20 13:46:00,
2013-02-20 14:51:00,55.2,36.8,29.98,WNW,293,1.5,8.0,50,0.00,,,0.00,WUHU216HW,2013-02-20 13:51:00,
2013-02-20 14:56:00,55.4,37.0,29.98,West,265,2.7,4.0,50,0.00,,,0.00,WUHU216HW,2013-02-20 13:56:00,
2013-02-20 15:01:00,55.2,36.3,29.98,WSW,248,2.2,7.3,49,0.00,,,0.00,WUHU216HW,2013-02-20 14:01:00,
2013-02-20 15:06:00,55.2,36.8,29.98,WNW,293,5.1,9.3,50,0.00,,,0.00,WUHU216HW,2013-02-20 14:06:00,
2013-02-20 15:11:00,55.5,37.5,29.98,West,270,2.0,9.3,51,0.00,,,0.00,WUHU216HW,2013-02-20 14:11:00,
2013-02-20 15:16:00,55.9,37.5,29.98,South,180,2.9,3.8,50,0.00,,,0.00,WUHU216HW,2013-02-20 14:16:00,
2013-02-20 15:21:00,55.7,37.4,29.97,West,270,4.6,6.2,50,0.00,,,0.00,WUHU216HW,2013-02-20 14:21:00,
2013-02-20 15:26:00,55.2,37.0,29.97,SSW,203,6.2,6.7,50,0.00,,,0.00,WUHU216HW,2013-02-20 14:26:00,
2013-02-20 15:31:00,54.5,37.1,29.98,SSW,203,4.6,6.7,52,0.00,,,0.00,WUHU216HW,2013-02-20 14:31:00,
2013-02-20 15:36:00,53.9,36.6,29.97,WSW,248,6.0,9.1,52,0.00,,,0.00,WUHU216HW,2013-02-20 14:36:00,
2013-02-20 15:41:00,54.3,37.4,29.97,SE,135,1.5,10.0,53,0.00,,,0.00,WUHU216HW,2013-02-20 14:41:00,
2013-02-20 15:46:00,55.2,37.8,29.97,WSW,248,7.6,10.0,52,0.00,,,0.00,WUHU216HW,2013-02-20 14:46:00,
2013-02-20 15:51:00,54.6,37.3,29.97,WSW,250,4.2,10.9,52,0.00,,,0.00,WUHU216HW,2013-02-20 14:51:00,
2013-02-20 15:56:00,55.0,37.1,29.97,SW,225,5.8,10.9,51,0.00,,,0.00,WUHU216HW,2013-02-20 14:56:00,
2013-02-20 16:01:00,54.8,37.0,29.97,SSW,203,4.0,6.4,51,0.00,,,0.00,WUHU216HW,2013-02-20 15:01:00,
2013-02-20 16:06:00,55.2,37.3,29.97,SW,225,8.5,8.5,51,0.00,,,0.00,WUHU216HW,2013-02-20 15:06:00,
2013-02-20 16:11:00,54.5,36.6,29.96,South,180,3.1,8.5,51,0.00,,,0.00,WUHU216HW,2013-02-20 15:11:00,
2013-02-20 16:16:00,54.5,36.6,29.97,SW,225,7.3,7.3,51,0.00,,,0.00,WUHU216HW,2013-02-20 15:16:00,
2013-02-20 16:21:00,54.1,36.3,29.97,WSW,248,3.5,7.3,51,0.00,,,0.00,WUHU216HW,2013-02-20 15:21:00,
2013-02-20 16:26:00,53.7,36.5,29.96,WSW,248,6.2,8.2,52,0.00,,,0.00,WUHU216HW,2013-02-20 15:26:00,
2013-02-20 16:31:00,53.4,36.6,29.96,South,180,4.0,8.2,53,0.00,,,0.00,WUHU216HW,2013-02-20 15:31:00,
2013-02-20 16:36:00,52.7,35.9,29.96,SW,223,6.7,9.1,53,0.00,,,0.00,WUHU216HW,2013-02-20 15:36:00,
2013-02-20 16:41:00,52.5,36.7,29.96,SSW,203,8.2,9.1,55,0.00,,,0.00,WUHU216HW,2013-02-20 15:41:00,
2013-02-20 16:46:00,52.5,36.7,29.97,SW,225,10.0,10.0,55,0.00,,,0.00,WUHU216HW,2013-02-20 15:46:00,
2013-02-20 16:51:00,52.3,36.5,29.96,South,180,4.0,10.0,55,0.00,,,0.00,WUHU216HW,2013-02-20 15:51:00,
2013-02-20 16:56:00,52.1,36.3,29.96,SW,225,8.9,9.1,55,0.00,,,0.00,WUHU216HW,2013-02-20 15:56:00,
2013-02-20 17:01:00,51.8,36.5,29.96,SSE,158,5.3,9.1,56,0.00,,,0.00,WUHU216HW,2013-02-20 16:01:00,
2013-02-20 17:06:00,51.4,36.1,29.96,South,184,2.8,5.5,56,0.00,,,0.00,WUHU216HW,2013-02-20 16:06:00,
2013-02-20 17:11:00,51.4,36.1,29.96,South,180,5.1,5.5,56,0.00,,,0.00,WUHU216HW,2013-02-20 16:11:00,
2013-02-20 17:16:00,51.0,36.3,29.96,SW,225,0.0,5.1,57,0.00,,,0.00,WUHU216HW,2013-02-20 16:16:00,
2013-02-20 17:21:00,51.0,36.1,29.96,SE,135,0.0,2.4,57,0.00,,,0.00,WUHU216HW,2013-02-20 16:21:00,
2013-02-20 17:26:00,50.7,36.4,29.96,South,180,0.0,2.4,58,0.00,,,0.00,WUHU216HW,2013-02-20 16:26:00,
2013-02-20 17:31:00,50.5,36.2,29.96,SSW,203,3.5,3.5,58,0.00,,,0.00,WUHU216HW,2013-02-20 16:31:00,
2013-02-20 17:36:00,50.5,36.1,29.96,SSE,150,2.5,3.5,58,0.00,,,0.00,WUHU216HW,2013-02-20 16:36:00,
2013-02-20 17:41:00,50.1,35.9,29.96,SSE,158,2.0,4.6,58,0.00,,,0.00,WUHU216HW,2013-02-20 16:41:00,
2013-02-20 17:46:00,50.1,35.9,29.97,SSW,193,3.0,4.6,58,0.00,,,0.00,WUHU216HW,2013-02-20 16:46:00,
2013-02-20 17:51:00,49.8,36.0,29.96,SSE,158,2.2,4.6,59,0.00,,,0.00,WUHU216HW,2013-02-20 16:51:00,
2013-02-20 17:56:00,49.8,36.0,29.97,SSE,154,1.8,4.6,59,0.00,,,0.00,WUHU216HW,2013-02-20 16:56:00,
2013-02-20 18:01:00,49.8,36.0,29.97,SSW,203,1.7,4.0,59,0.00,,,0.00,WUHU216HW,2013-02-20 17:01:00,
2013-02-20 18:06:00,49.6,36.0,29.97,SSE,168,2.4,5.3,59,0.00,,,0.00,WUHU216HW,2013-02-20 17:06:00,
2013-02-20 18:11:00,49.6,36.3,29.97,South,180,6.0,6.0,60,0.00,,,0.00,WUHU216HW,2013-02-20 17:11:00,
2013-02-20 18:16:00,49.6,35.8,29.97,South,180,4.0,6.0,59,0.00,,,0.00,WUHU216HW,2013-02-20 17:16:00,
2013-02-20 18:21:00,49.6,35.8,29.97,SSW,203,3.8,6.0,59,0.00,,,0.00,WUHU216HW,2013-02-20 17:21:00,
2013-02-20 18:26:00,49.4,36.3,29.97,SSE,168,1.6,3.8,60,0.00,,,0.00,WUHU216HW,2013-02-20 17:26:00,
2013-02-20 18:31:00,49.2,36.0,29.97,ESE,113,1.5,3.8,60,0.00,,,0.00,WUHU216HW,2013-02-20 17:31:00,
2013-02-20 18:36:00,48.7,35.9,29.98,SSE,158,1.5,2.0,61,0.00,,,0.00,WUHU216HW,2013-02-20 17:36:00,
2013-02-20 18:41:00,48.3,35.6,29.97,SE,135,1.1,1.7,61,0.00,,,0.00,WUHU216HW,2013-02-20 17:41:00,
2013-02-20 18:46:00,48.3,35.9,29.97,South,180,2.4,2.4,62,0.00,,,0.00,WUHU216HW,2013-02-20 17:46:00,
2013-02-20 18:51:00,48.0,35.6,29.98,ESE,113,0.8,2.4,62,0.00,,,0.00,WUHU216HW,2013-02-20 17:51:00,
2013-02-20 18:56:00,48.0,35.6,29.98,SE,135,1.3,1.7,62,0.00,,,0.00,WUHU216HW,2013-02-20 17:56:00,
2013-02-20 19:01:00,48.0,36.0,29.98,SSE,158,1.7,1.7,63,0.00,,,0.00,WUHU216HW,2013-02-20 18:01:00,
2013-02-20 19:06:00,48.0,36.0,29.98,ESE,113,2.9,2.9,63,0.00,,,0.00,WUHU216HW,2013-02-20 18:06:00,
2013-02-20 19:11:00,47.8,35.8,29.98,SSE,158,1.3,2.9,63,0.00,,,0.00,WUHU216HW,2013-02-20 18:11:00,
2013-02-20 19:16:00,47.8,35.8,29.98,ESE,113,1.1,2.2,63,0.00,,,0.00,WUHU216HW,2013-02-20 18:16:00,
2013-02-20 19:21:00,47.4,35.8,29.98,ENE,68,0.0,2.2,64,0.00,,,0.00,WUHU216HW,2013-02-20 18:21:00,
2013-02-20 19:26:00,46.9,36.1,29.98,NNE,23,1.3,1.3,66,0.00,,,0.00,WUHU216HW,2013-02-20 18:26:00,
2013-02-20 19:31:00,46.0,36.0,29.98,NNE,23,0.8,1.5,68,0.00,,,0.00,WUHU216HW,2013-02-20 18:31:00,
2013-02-20 19:36:00,45.1,35.3,29.98,NNE,23,2.0,2.0,68,0.00,,,0.00,WUHU216HW,2013-02-20 18:36:00,
2013-02-20 19:41:00,44.9,35.3,29.98,NNE,23,0.0,2.0,69,0.00,,,0.00,WUHU216HW,2013-02-20 18:41:00,
2013-02-20 19:46:00,44.7,35.6,29.97,NE,35,1.2,1.3,70,0.00,,,0.00,WUHU216HW,2013-02-20 18:46:00,
2013-02-20 19:51:00,44.9,35.7,29.98,NNE,23,0.0,1.3,70,0.00,,,0.00,WUHU216HW,2013-02-20 18:51:00,
2013-02-20 19:56:00,44.9,36.1,29.97,North,0,1.2,1.7,71,0.00,,,0.00,WUHU216HW,2013-02-20 18:56:00,
2013-02-20 20:01:00,44.4,35.2,29.98,NE,45,0.0,1.7,70,0.00,,,0.00,WUHU216HW,2013-02-20 19:01:00,
2013-02-20 20:06:00,44.0,35.6,29.98,NNE,23,0.8,0.8,72,0.00,,,0.00,WUHU216HW,2013-02-20 19:06:00,
2013-02-20 20:11:00,43.5,35.0,29.97,NE,45,0.0,0.8,72,0.00,,,0.00,WUHU216HW,2013-02-20 19:11:00,
2013-02-20 20:16:00,43.3,35.2,29.98,NNE,23,0.0,0.0,73,0.00,,,0.00,WUHU216HW,2013-02-20 19:16:00,
2013-02-20 20:21:00,42.9,35.2,29.98,North,0,0.0,0.0,74,0.00,,,0.00,WUHU216HW,2013-02-20 19:21:00,
2013-02-20 20:26:00,42.4,35.0,29.98,North,0,0.8,0.8,75,0.00,,,0.00,WUHU216HW,2013-02-20 19:26:00,
2013-02-20 20:31:00,42.0,34.7,29.98,North,0,0.0,0.8,75,0.00,,,0.00,WUHU216HW,2013-02-20 19:31:00,
2013-02-20 20:36:00,41.7,34.3,29.98,North,0,0.0,0.0,75,0.00,,,0.00,WUHU216HW,2013-02-20 19:36:00,
2013-02-20 20:41:00,41.5,34.1,29.98,North,0,0.0,0.0,75,0.00,,,0.00,WUHU216HW,2013-02-20 19:41:00,
2013-02-20 20:46:00,41.5,34.4,29.98,ENE,68,0.0,0.0,76,0.00,,,0.00,WUHU216HW,2013-02-20 19:46:00,
2013-02-20 20:51:00,41.5,34.4,29.98,NNE,23,0.0,0.0,76,0.00,,,0.00,WUHU216HW,2013-02-20 19:51:00,
2013-02-20 20:56:00,41.5,34.4,29.98,North,0,0.0,0.0,76,0.00,,,0.00,WUHU216HW,2013-02-20 19:56:00,
2013-02-20 21:01:00,41.1,34.2,29.98,North,7,0.9,1.3,77,0.00,,,0.00,WUHU216HW,2013-02-20 20:01:00,
2013-02-20 21:06:00,40.8,34.0,29.98,NNE,23,0.0,1.3,77,0.00,,,0.00,WUHU216HW,2013-02-20 20:06:00,
2013-02-20 21:11:00,40.6,33.9,29.98,East,90,0.0,0.0,77,0.00,,,0.00,WUHU216HW,2013-02-20 20:11:00,
2013-02-20 21:17:00,40.6,33.9,29.98,ENE,68,0.0,0.0,77,0.00,,,0.00,WUHU216HW,2013-02-20 20:17:00,
2013-02-20 21:22:00,40.6,33.9,29.98,NNE,23,0.0,0.0,77,0.00,,,0.00,WUHU216HW,2013-02-20 20:22:00,
2013-02-20 21:27:00,40.4,33.4,29.98,North,0,0.0,0.0,76,0.00,,,0.00,WUHU216HW,2013-02-20 20:27:00,
2013-02-20 21:32:00,40.1,33.0,29.98,North,0,0.0,1.3,76,0.00,,,0.00,WUHU216HW,2013-02-20 20:32:00,
2013-02-20 21:37:00,39.9,32.9,29.98,North,0,0.0,1.3,76,0.00,,,0.00,WUHU216HW,2013-02-20 20:37:00,
2013-02-20 21:42:00,39.7,32.7,29.98,North,0,0.0,0.0,76,0.00,,,0.00,WUHU216HW,2013-02-20 20:42:00,
2013-02-20 21:47:00,39.5,32.5,29.98,North,0,0.0,0.0,76,0.00,,,0.00,WUHU216HW,2013-02-20 20:47:00,
2013-02-20 21:52:00,39.3,32.4,29.98,North,0,0.0,0.0,76,0.00,,,0.00,WUHU216HW,2013-02-20 20:52:00,
2013-02-20 21:57:00,39.0,32.0,29.98,North,0,0.0,0.0,76,0.00,,,0.00,WUHU216HW,2013-02-20 20:57:00,
2013-02-20 22:02:00,39.0,32.4,29.98,North,0,0.0,0.0,77,0.00,,,0.00,WUHU216HW,2013-02-20 21:02:00,
2013-02-20 22:07:00,39.0,32.0,29.98,SW,225,2.2,2.2,76,0.00,,,0.00,WUHU216HW,2013-02-20 21:07:00,
2013-02-20 22:12:00,39.7,32.7,29.98,WSW,248,0.0,2.4,76,0.00,,,0.00,WUHU216HW,2013-02-20 21:12:00,
2013-02-20 22:17:00,39.9,32.9,29.98,WSW,248,0.0,2.4,76,0.00,,,0.00,WUHU216HW,2013-02-20 21:17:00,
2013-02-20 22:22:00,39.9,32.9,29.98,WSW,248,0.0,0.0,76,0.00,,,0.00,WUHU216HW,2013-02-20 21:22:00,
2013-02-20 22:27:00,39.9,32.9,29.97,WSW,248,0.0,0.0,76,0.00,,,0.00,WUHU216HW,2013-02-20 21:27:00,
2013-02-20 22:32:00,39.5,32.5,29.97,North,0,0.0,0.8,76,0.00,,,0.00,WUHU216HW,2013-02-20 21:32:00,
2013-02-20 22:37:00,39.3,32.4,29.98,North,0,0.0,0.8,76,0.00,,,0.00,WUHU216HW,2013-02-20 21:37:00,
2013-02-20 22:42:00,39.0,32.0,29.97,North,0,0.0,0.0,76,0.00,,,0.00,WUHU216HW,2013-02-20 21:42:00,
2013-02-20 22:47:00,39.0,32.0,29.97,North,0,0.0,0.0,76,0.00,,,0.00,WUHU216HW,2013-02-20 21:47:00,
2013-02-20 22:52:00,38.8,31.8,29.97,North,0,0.0,0.0,76,0.00,,,0.00,WUHU216HW,2013-02-20 21:52:00,
2013-02-20 22:57:00,38.8,31.8,29.97,North,0,0.0,0.0,76,0.00,,,0.00,WUHU216HW,2013-02-20 21:57:00,
2013-02-20 23:02:00,38.8,31.5,29.97,NE,45,0.0,0.0,75,0.00,,,0.00,WUHU216HW,2013-02-20 22:02:00,
2013-02-20 23:07:00,38.8,31.5,29.97,ENE,68,0.0,0.8,75,0.00,,,0.00,WUHU216HW,2013-02-20 22:07:00,
2013-02-20 23:12:00,38.8,31.5,29.96,East,90,1.5,1.5,75,0.00,,,0.00,WUHU216HW,2013-02-20 22:12:00,
2013-02-20 23:17:00,38.8,31.5,29.96,East,90,0.0,1.5,75,0.00,,,0.00,WUHU216HW,2013-02-20 22:17:00,
2013-02-20 23:22:00,39.0,32.0,29.96,East,90,0.0,1.3,76,0.00,,,0.00,WUHU216HW,2013-02-20 22:22:00,
2013-02-20 23:27:00,39.0,32.0,29.96,ESE,113,0.0,0.0,76,0.00,,,0.00,WUHU216HW,2013-02-20 22:27:00,
2013-02-20 23:32:00,39.3,32.4,29.97,South,180,0.8,0.8,76,0.00,,,0.00,WUHU216HW,2013-02-20 22:32:00,
2013-02-20 23:37:00,39.5,32.5,29.97,South,180,2.9,2.9,76,0.00,,,0.00,WUHU216HW,2013-02-20 22:37:00,
2013-02-20 23:42:00,39.7,32.7,29.97,SW,225,2.3,2.9,76,0.00,,,0.00,WUHU216HW,2013-02-20 22:42:00,
2013-02-20 23:47:00,39.3,32.5,29.97,SSW,203,3.1,3.1,76,0.00,,,0.00,WUHU216HW,2013-02-20 22:47:00,
2013-02-20 23:52:00,39.5,32.5,29.97,SW,225,1.4,3.5,76,0.00,,,0.00,WUHU216HW,2013-02-20 22:52:00,
2013-02-20 23:57:00,39.3,32.4,29.97,North,0,0.0,3.5,76,0.00,,,0.00,WUHU216HW,2013-02-20 22:57:00,